| time (UTC) | temp F | wind direction | speed knots | gust knots | rain 1hr in | rain 24hr in | rain mn in | humidity % | barometer mb |
| 20260506201550 | 72 | 327 | 0.9 | 3.5 | 0.00 | 0.00 | 0.00 | 54 | 1020.5 |
| 20260506200052 | 71 | 55 | 0.0 | 4.3 | 0.00 | 0.00 | 0.00 | 56 | 1020.6 |
| 20260506194546 | 70 | 31 | 0.9 | 5.2 | 0.00 | 0.00 | 0.00 | 59 | 1020.8 |
| 20260506193043 | 70 | 360 | 0.0 | 3.5 | 0.00 | 0.00 | 0.00 | 62 | 1020.9 |
| 20260506191540 | 71 | 292 | 0.9 | 3.5 | 0.00 | 0.00 | 0.00 | 58 | 1020.9 |
| 20260506190038 | 70 | 285 | 0.0 | 3.5 | 0.00 | 0.00 | 0.00 | 59 | 1021.1 |
| 20260506184549 | 71 | 305 | 0.0 | 4.3 | 0.00 | 0.00 | 0.00 | 59 | 1021.3 |
| 20260506183052 | 69 | 296 | 0.0 | 5.2 | 0.00 | 0.00 | 0.00 | 60 | 1021.4 |
| 20260506181551 | 69 | 333 | 0.0 | 6.1 | 0.00 | 0.00 | 0.00 | 64 | 1021.4 |
| 20260506180044 | 69 | 240 | 0.0 | 0.0 | 0.00 | 0.00 | 0.00 | 64 | 1021.3 |
| 20260506174547 | 64 | 156 | 1.7 | 4.3 | 0.00 | 0.00 | 0.00 | 68 | 1021.3 |
| 20260506173006 | 67 | 314 | 0.0 | 3.5 | 0.00 | 0.00 | 0.00 | 67 | 1021.2 |
| 20260506171528 | 67 | 40 | 0.0 | 1.7 | 0.00 | 0.00 | 0.00 | 65 | 1021.4 |
| 20260506170041 | 64 | 355 | 0.0 | 3.5 | 0.00 | 0.00 | 0.00 | 70 | 1021.4 |
| 20260506164543 | 63 | 246 | 0.0 | 2.6 | 0.00 | 0.00 | 0.00 | 72 | 1021.3 |
| 20260506163037 | 61 | 271 | 0.9 | 5.2 | 0.00 | 0.00 | 0.00 | 72 | 1021.5 |
| 20260506161531 | 62 | 265 | 0.0 | 0.9 | 0.00 | 0.00 | 0.00 | 72 | 1021.6 |
| 20260506160029 | 61 | 267 | 0.9 | 3.5 | 0.00 | 0.00 | 0.00 | 72 | 1021.6 |
| 20260506154529 | 61 | 150 | 0.0 | 1.7 | 0.00 | 0.00 | 0.00 | 75 | 1021.6 |
| 20260506153030 | 59 | 158 | 0.9 | 2.6 | 0.00 | 0.00 | 0.00 | 77 | 1021.7 |
| 20260506151532 | 58 | 135 | 2.6 | 6.1 | 0.00 | 0.00 | 0.00 | 77 | 1021.5 |
| 20260506150024 | 57 | 170 | 0.0 | 2.6 | 0.00 | 0.00 | 0.00 | 79 | 1021.5 |
| 20260506144525 | 57 | 360 | 1.7 | 3.5 | 0.00 | 0.00 | 0.00 | 80 | 1021.4 |
| 20260506143028 | 56 | 217 | 0.0 | 1.7 | 0.00 | 0.00 | 0.00 | 82 | 1021.5 |
| 20260506141536 | 55 | 218 | 0.0 | 1.7 | 0.00 | 0.00 | 0.00 | 83 | 1021.3 |
| 20260506140105 | 54 | 259 | 0.0 | 0.9 | 0.00 | 0.00 | 0.00 | 83 | 1021.1 |
| 20260506134505 | 54 | 259 | 0.0 | 0.0 | 0.00 | 0.00 | 0.00 | 83 | 1020.9 |
| 20260506133009 | 54 | 259 | 0.0 | 0.0 | 0.00 | 0.00 | 0.00 | 83 | 1020.9 |
| 20260506131514 | 54 | 259 | 0.0 | 0.0 | 0.00 | 0.00 | 0.00 | 82 | 1020.8 |
| 20260506130012 | 54 | 259 | 0.0 | 0.0 | 0.00 | 0.00 | 0.00 | 82 | 1020.7 |
| 20260506124511 | 55 | 259 | 0.0 | 0.0 | 0.00 | 0.00 | 0.00 | 82 | 1020.6 |
| 20260506123011 | 55 | 259 | 0.0 | 0.0 | 0.00 | 0.00 | 0.00 | 81 | 1020.6 |
| 20260506121511 | 55 | 259 | 0.0 | 0.0 | 0.00 | 0.00 | 0.00 | 81 | 1020.6 |
| 20260506120018 | 55 | 259 | 0.0 | 0.0 | 0.00 | 0.00 | 0.00 | 80 | 1020.5 |
| 20260506114519 | 55 | 259 | 0.0 | 0.0 | 0.00 | 0.00 | 0.00 | 80 | 1020.4 |
| 20260506113024 | 55 | 259 | 0.0 | 0.0 | 0.00 | 0.00 | 0.00 | 80 | 1020.3 |
| 20260506111516 | 55 | 259 | 0.0 | 1.7 | 0.00 | 0.00 | 0.00 | 80 | 1020.1 |
| 20260506110016 | 55 | 259 | 0.0 | 1.7 | 0.00 | 0.00 | 0.00 | 81 | 1020.1 |
| 20260506104518 | 55 | 258 | 0.0 | 0.0 | 0.00 | 0.00 | 0.00 | 80 | 1020.1 |
| 20260506103030 | 55 | 262 | 0.0 | 0.9 | 0.00 | 0.00 | 0.00 | 80 | 1020.1 |
| 20260506101536 | 55 | 262 | 0.0 | 0.0 | 0.00 | 0.00 | 0.00 | 80 | 1020.0 |
| 20260506100048 | 55 | 262 | 0.0 | 2.6 | 0.00 | 0.00 | 0.00 | 79 | 1019.9 |
| 20260506094600 | 55 | 257 | 0.0 | 2.6 | 0.00 | 0.01 | 0.00 | 79 | 1019.9 |
| 20260506093102 | 55 | 281 | 0.0 | 1.7 | 0.00 | 0.01 | 0.00 | 80 | 1019.8 |
| 20260506091505 | 55 | 282 | 0.0 | 1.7 | 0.00 | 0.01 | 0.00 | 80 | 1020.0 |
| 20260506090005 | 55 | 282 | 0.0 | 0.0 | 0.00 | 0.03 | 0.00 | 80 | 1020.1 |
| 20260506084605 | 55 | 277 | 0.0 | 1.7 | 0.00 | 0.03 | 0.00 | 80 | 1020.1 |
| 20260506083006 | 54 | 265 | 0.0 | 0.0 | 0.00 | 0.03 | 0.00 | 81 | 1020.0 |
| 20260506081527 | 54 | 265 | 0.0 | 0.0 | 0.00 | 0.03 | 0.00 | 80 | 1020.0 |
| 20260506073037 | 55 | 266 | 0.0 | 3.5 | 0.00 | 0.08 | 0.00 | 79 | 1019.6 |
| 20260506071540 | 55 | 236 | 0.0 | 3.5 | 0.00 | 0.08 | 0.00 | 79 | 1019.6 |
| 20260506061513 | 55 | 242 | 1.7 | 4.3 | 0.00 | 0.10 | 0.08 | 79 | 1019.0 |
| 20260506044533 | 56 | 360 | 2.6 | 5.2 | 0.00 | 0.18 | 0.08 | 81 | 1018.3 |
| 20260506043034 | 56 | 360 | 1.7 | 7.8 | 0.00 | 0.18 | 0.08 | 81 | 1018.2 |
| 20260506041537 | 56 | 360 | 3.5 | 8.7 | 0.00 | 0.18 | 0.08 | 80 | 1018.0 |
| 20260506040041 | 57 | 360 | 0.9 | 6.1 | 0.00 | 0.18 | 0.08 | 80 | 1018.0 |
| 20260506034535 | 57 | 227 | 2.6 | 7.0 | 0.00 | 0.18 | 0.08 | 79 | 1017.9 |
| 20260506033023 | 57 | 234 | 1.7 | 7.0 | 0.00 | 0.18 | 0.08 | 78 | 1017.6 |
| 20260506031525 | 57 | 261 | 0.9 | 4.3 | 0.00 | 0.18 | 0.08 | 78 | 1017.4 |
| 20260506030037 | 58 | 273 | 0.0 | 6.1 | 0.00 | 0.18 | 0.08 | 77 | 1017.2 |
| 20260506024553 | 58 | 285 | 1.7 | 6.1 | 0.00 | 0.18 | 0.08 | 76 | 1017.1 |
| 20260506023033 | 58 | 262 | 1.7 | 5.2 | 0.00 | 0.18 | 0.08 | 75 | 1016.9 |
| 20260506021525 | 59 | 360 | 2.6 | 5.2 | 0.00 | 0.18 | 0.08 | 74 | 1016.9 |
| 20260506020017 | 60 | 360 | 0.9 | 3.5 | 0.00 | 0.18 | 0.08 | 73 | 1016.7 |
| 20260506014517 | 60 | 360 | 1.7 | 5.2 | 0.00 | 0.18 | 0.08 | 72 | 1016.5 |
| 20260506013032 | 60 | 247 | 0.9 | 7.8 | 0.00 | 0.18 | 0.08 | 73 | 1016.4 |
| 20260506011531 | 61 | 276 | 3.5 | 7.8 | 0.00 | 0.18 | 0.08 | 72 | 1016.4 |
| 20260506010042 | 61 | 227 | 2.6 | 7.0 | 0.00 | 0.18 | 0.08 | 73 | 1016.3 |
| 20260506004554 | 61 | 281 | 0.9 | 6.1 | 0.00 | 0.18 | 0.08 | 73 | 1016.2 |
| 20260506003053 | 61 | 259 | 1.7 | 6.1 | 0.00 | 0.18 | 0.08 | 72 | 1016.2 |
| 20260506001555 | 61 | 239 | 2.6 | 7.0 | 0.00 | 0.18 | 0.08 | 72 | 1016.1 |
| 20260506000006 | 61 | 242 | 2.6 | 7.0 | 0.00 | 0.18 | 0.08 | 73 | 1016.1 |
| 20260505234517 | 62 | 261 | 1.7 | 6.1 | 0.00 | 0.18 | 0.08 | 73 | 1016.1 |
| 20260505233020 | 61 | 279 | 1.7 | 6.1 | 0.00 | 0.18 | 0.08 | 72 | 1016.1 |
| 20260505231521 | 62 | 273 | 0.9 | 6.1 | 0.00 | 0.18 | 0.08 | 72 | 1016.2 |
| 20260505230049 | 62 | 236 | 1.7 | 4.3 | 0.00 | 0.18 | 0.08 | 72 | 1016.2 |
| 20260505224546 | 62 | 284 | 0.0 | 3.5 | 0.00 | 0.18 | 0.08 | 72 | 1016.1 |
| 20260505223056 | 62 | 252 | 0.9 | 3.5 | 0.00 | 0.18 | 0.08 | 72 | 1016.2 |
| 20260505221548 | 61 | 294 | 0.9 | 4.3 | 0.00 | 0.18 | 0.08 | 72 | 1016.2 |
| 20260505220050 | 61 | 209 | 0.0 | 6.1 | 0.00 | 0.18 | 0.08 | 73 | 1016.3 |
| 20260505214548 | 62 | 257 | 0.9 | 7.0 | 0.00 | 0.18 | 0.08 | 71 | 1016.4 |
| 20260505213101 | 62 | 289 | 0.0 | 1.7 | 0.00 | 0.18 | 0.08 | 70 | 1016.4 |
| 20260505211553 | 62 | 289 | 0.0 | 4.3 | 0.00 | 0.18 | 0.08 | 69 | 1016.5 |
| 20260505210056 | 62 | 291 | 1.7 | 7.0 | 0.00 | 0.18 | 0.08 | 70 | 1016.4 |
| 20260505204507 | 62 | 260 | 2.6 | 7.8 | 0.00 | 0.18 | 0.08 | 70 | 1016.6 |
| 20260505203027 | 61 | 281 | 2.6 | 9.6 | 0.00 | 0.18 | 0.08 | 70 | 1016.6 |